Time;durP1;ratioP1;P1;durP2;ratioP2;P2;SDS_P1;SDS_P2;PMS_P1;PMS_P2;Temp;Humidity;BMP_temperature;BMP_pressure;BME280_temperature;BME280_humidity;BME280_pressure;Samples;Min_cycle;Max_cycle;Signal;HPM_P1;HPM_P2
2021/08/24 00:00:43;;;;;;;9.05;5.57;;;;;;;15.30;74.40;100065.91;5122123;28;20038;-62
2021/08/24 00:03:29;;;;;;;11.85;6.40;;;;;;;15.28;74.68;100060.75;5120799;28;20589;-58
2021/08/24 00:06:15;;;;;;;9.77;5.82;;;;;;;15.28;74.59;100060.75;5116508;28;20059;-61
2021/08/24 00:09:02;;;;;;;9.30;6.25;;;;;;;15.24;74.85;100059.16;5110968;28;20036;-59
2021/08/24 00:11:48;;;;;;;8.30;5.80;;;;;;;15.21;75.01;100064.47;5122229;28;20019;-60
2021/08/24 00:14:34;;;;;;;8.68;5.55;;;;;;;15.20;74.46;100065.38;5103068;28;20020;-61
2021/08/24 00:17:20;;;;;;;8.15;5.15;;;;;;;15.23;74.61;100073.09;5117387;28;20031;-61
2021/08/24 00:20:07;;;;;;;8.95;4.97;;;;;;;15.15;74.99;100085.56;5121701;28;20024;-63
2021/08/24 00:22:53;;;;;;;9.05;4.85;;;;;;;15.04;75.31;100075.47;5123032;28;20035;-61
2021/08/24 00:25:40;;;;;;;5.43;4.32;;;;;;;14.94;75.67;100081.91;5121547;28;20279;-61
2021/08/24 00:28:26;;;;;;;6.80;4.90;;;;;;;14.84;75.58;100082.22;5122822;28;20020;-61
2021/08/24 00:31:28;;;;;;;;;;;;;;;14.93;76.30;100080.22;5122690;28;20028;-62
2021/08/24 00:34:14;;;;;;;11.65;5.32;;;;;;;15.00;75.08;100081.72;5122020;28;19910;-62
2021/08/24 00:37:00;;;;;;;8.45;4.95;;;;;;;14.99;75.22;100091.28;5122458;28;20034;-62
2021/08/24 00:39:46;;;;;;;8.25;5.15;;;;;;;14.96;75.64;100080.09;5113332;28;20020;-61
2021/08/24 00:42:32;;;;;;;6.95;5.10;;;;;;;15.00;74.96;100086.91;5121169;28;20042;-60
2021/08/24 00:45:18;;;;;;;8.30;5.32;;;;;;;14.97;75.31;100076.59;5121370;28;20023;-60
2021/08/24 00:48:05;;;;;;;9.65;5.13;;;;;;;14.97;75.12;100085.25;5102489;28;20032;-61
2021/08/24 00:50:54;;;;;;;11.10;5.22;;;;;;;15.00;74.86;100082.53;5121557;28;20095;-61
2021/08/24 00:53:42;;;;;;;8.65;5.20;;;;;;;14.99;75.69;100075.66;5122113;28;20065;-61
2021/08/24 00:56:30;;;;;;;6.32;5.22;;;;;;;14.70;74.97;100029.66;5121897;28;20020;-61
2021/08/24 00:59:16;;;;;;;8.30;4.93;;;;;;;14.84;76.00;100079.59;5122408;28;20204;-61
2021/08/24 01:02:05;;;;;;;8.68;5.43;;;;;;;14.94;75.45;100077.53;5122002;28;20030;-61
2021/08/24 01:04:53;;;;;;;11.95;6.07;;;;;;;14.67;75.90;100033.22;5122089;28;20076;-61
2021/08/24 01:07:50;;;;;;;9.73;7.50;;;;;;;14.98;76.15;100086.97;5122285;28;20023;-61
2021/08/24 01:10:44;;;;;;;11.55;8.70;;;;;;;14.97;75.92;100093.09;5120876;28;20016;-61
2021/08/24 01:13:39;;;;;;;11.60;9.60;;;;;;;14.96;76.29;100080.97;5121308;28;20273;-61
2021/08/24 01:16:25;;;;;;;12.48;9.95;;;;;;;14.96;75.91;100078.38;5117708;28;20020;-61
2021/08/24 01:19:48;;;;;;;14.25;10.68;;;;;;;14.90;76.46;100073.31;5121556;28;20222;-61
2021/08/24 01:22:42;;;;;;;11.60;8.23;;;;;;;14.78;77.09;100076.34;5120811;28;20043;-61
2021/08/24 01:25:51;;;;;;;9.57;7.85;;;;;;;14.81;76.74;100071.88;5108011;28;20403;-61
2021/08/24 01:28:49;;;;;;;11.15;8.07;;;;;;;14.80;76.18;100067.56;5120521;28;20030;-60
2021/08/24 01:32:15;;;;;;;10.32;8.25;;;;;;;14.77;76.75;100074.66;5121184;28;20035;-61
2021/08/24 01:35:43;;;;;;;12.02;8.32;;;;;;;14.83;75.99;100074.44;5121371;28;20098;-61
2021/08/24 01:38:32;;;;;;;15.35;8.88;;;;;;;14.80;76.81;100077.16;5121521;28;20028;-61
2021/08/24 01:41:47;;;;;;;12.15;9.90;;;;;;;14.72;76.32;100076.53;5122203;28;20328;-61
2021/08/24 01:44:43;;;;;;;11.18;9.00;;;;;;;14.63;76.60;100060.28;5121264;28;20231;-63
2021/08/24 01:47:47;;;;;;;12.45;8.93;;;;;;;14.71;76.36;100074.81;5119566;28;20026;-62
2021/08/24 01:50:39;;;;;;;14.05;8.90;;;;;;;14.38;76.29;100015.91;5121937;28;20245;-61
2021/08/24 01:53:48;;;;;;;13.70;9.75;;;;;;;14.67;76.22;100063.66;5121795;28;20042;-61
2021/08/24 01:56:38;;;;;;;14.48;9.10;;;;;;;14.65;76.53;100079.34;5116456;28;20035;-61
2021/08/24 01:59:30;;;;;;;12.63;8.98;;;;;;;14.59;76.27;100047.38;5122047;28;20027;-61
2021/08/24 02:02:21;;;;;;;13.20;9.73;;;;;;;14.33;77.09;100003.00;5121239;28;20019;-62
2021/08/24 02:05:25;;;;;;;12.88;10.05;;;;;;;14.52;77.57;100051.91;5120937;28;20024;-61
2021/08/24 02:08:18;;;;;;;14.00;10.82;;;;;;;14.37;77.42;100053.28;5121709;28;20030;-62
2021/08/24 02:11:05;;;;;;;13.98;10.55;;;;;;;14.41;77.38;100057.50;5120486;28;20038;-63
2021/08/24 02:13:53;;;;;;;13.85;11.45;;;;;;;14.03;77.77;100014.38;5120659;28;20024;-61
2021/08/24 02:16:42;;;;;;;16.85;13.23;;;;;;;14.27;77.70;100049.25;5121613;28;20028;-61
2021/08/24 02:19:36;;;;;;;16.77;13.07;;;;;;;14.31;77.11;100049.09;5120949;28;20016;-62
2021/08/24 02:22:29;;;;;;;16.75;12.98;;;;;;;14.36;77.09;100053.31;5120582;28;20286;-61
2021/08/24 02:25:22;;;;;;;17.83;12.80;;;;;;;14.31;77.62;100067.34;5103872;28;20221;-62
2021/08/24 02:28:38;;;;;;;19.13;13.23;;;;;;;14.23;78.81;100066.72;5120502;28;20051;-61
2021/08/24 02:31:30;;;;;;;22.83;14.93;;;;;;;14.22;78.40;100057.19;5121623;28;20035;-61
2021/08/24 02:34:42;;;;;;;19.02;12.27;;;;;;;13.79;77.58;99983.81;5120592;28;20406;-61
2021/08/24 02:37:34;;;;;;;23.30;14.35;;;;;;;14.36;77.49;100074.16;5119846;28;20027;-61
2021/08/24 02:40:46;;;;;;;18.30;12.40;;;;;;;14.43;77.84;100070.47;5104747;28;20012;-61
2021/08/24 02:43:53;;;;;;;18.38;12.25;;;;;;;14.15;77.90;100021.81;5083085;28;20328;-62
2021/08/24 02:46:47;;;;;;;17.85;9.82;;;;;;;14.46;77.70;100078.19;5120558;28;20023;-63
2021/08/24 02:49:33;;;;;;;15.13;9.93;;;;;;;14.43;77.38;100062.66;5119540;28;20224;-63
2021/08/24 02:52:20;;;;;;;14.93;11.10;;;;;;;14.55;77.30;100083.13;5121009;28;20087;-63
2021/08/24 02:55:08;;;;;;;18.00;12.52;;;;;;;14.58;77.07;100077.81;5107553;28;20069;-63
2021/08/24 02:57:54;;;;;;;16.15;10.80;;;;;;;14.53;76.61;100066.66;5121877;28;20215;-63
2021/08/24 03:00:41;;;;;;;16.17;10.90;;;;;;;14.64;77.70;100075.03;5124651;28;20216;-63
2021/08/24 03:03:26;;;;;;;14.48;10.48;;;;;;;14.70;77.06;100080.97;5124405;28;20220;-63
2021/08/24 03:06:12;;;;;;;13.75;9.02;;;;;;;14.73;76.61;100075.66;5114486;28;20031;-63
2021/08/24 03:09:00;;;;;;;14.35;9.00;;;;;;;14.76;76.91;100078.16;5111857;28;20063;-63
2021/08/24 03:12:18;;;;;;;12.85;8.82;;;;;;;14.79;77.70;100072.81;5123429;28;20093;-63
2021/08/24 03:15:10;;;;;;;14.13;7.60;;;;;;;14.76;77.32;100072.94;5098378;28;20325;-61
2021/08/24 03:18:05;;;;;;;12.57;6.65;;;;;;;14.53;77.46;100034.56;5123848;28;20023;-61
2021/08/24 03:20:56;;;;;;;9.10;5.82;;;;;;;14.44;77.40;100023.50;5123138;28;20054;-61
2021/08/24 03:23:44;;;;;;;12.15;5.85;;;;;;;14.79;77.23;100080.66;5113866;28;20343;-61
2021/08/24 03:26:34;;;;;;;9.57;6.15;;;;;;;14.50;77.80;100030.28;5114956;28;20028;-61
2021/08/24 03:29:24;;;;;;;6.00;5.15;;;;;;;14.50;76.99;100030.28;5123455;28;20098;-61
2021/08/24 03:32:10;;;;;;;9.20;5.32;;;;;;;14.80;77.65;100085.81;5123418;28;20035;-62
2021/08/24 03:34:56;;;;;;;11.85;5.93;;;;;;;14.78;77.95;100092.84;5122448;28;20030;-63
2021/08/24 03:37:43;;;;;;;12.00;7.18;;;;;;;14.75;79.09;100099.91;5115056;28;20032;-61
2021/08/24 03:40:29;;;;;;;15.73;9.20;;;;;;;14.74;78.58;100106.03;5122877;28;20031;-61
2021/08/24 03:43:15;;;;;;;9.35;6.18;;;;;;;14.82;78.60;100098.78;5121386;28;20332;-61
2021/08/24 03:46:02;;;;;;;8.48;5.63;;;;;;;14.94;78.19;100098.41;5123241;28;20046;-62
2021/08/24 03:48:48;;;;;;;8.77;6.07;;;;;;;15.04;77.96;100093.75;5112039;28;20035;-63
2021/08/24 03:51:33;;;;;;;12.18;6.25;;;;;;;15.12;78.55;100096.09;5123085;28;20258;-63
2021/08/24 03:54:19;;;;;;;11.95;6.35;;;;;;;15.19;78.31;100097.56;5121916;28;20096;-61
2021/08/24 03:57:06;;;;;;;7.90;5.13;;;;;;;15.25;77.91;100094.78;5122039;28;20366;-62
2021/08/24 03:59:55;;;;;;;10.00;5.68;;;;;;;15.38;77.90;100096.94;5122389;28;20072;-62
2021/08/24 04:02:41;;;;;;;12.13;5.47;;;;;;;15.44;77.91;100096.75;5120119;28;20020;-61
2021/08/24 04:05:27;;;;;;;5.45;3.95;;;;;;;15.44;77.49;100096.75;5122497;28;20035;-62
2021/08/24 04:08:13;;;;;;;7.82;4.18;;;;;;;15.45;77.48;100091.47;5113540;28;20276;-61
2021/08/24 04:11:02;;;;;;;8.93;3.47;;;;;;;15.50;76.98;100092.16;5117411;28;20028;-61
2021/08/24 04:13:48;;;;;;;6.28;3.60;;;;;;;15.59;76.14;100097.97;5121413;28;20185;-61
2021/08/24 04:16:34;;;;;;;4.22;2.95;;;;;;;15.56;76.65;100096.31;5121491;28;20024;-61
2021/08/24 04:19:20;;;;;;;4.75;3.20;;;;;;;15.66;76.00;100097.72;5121031;28;20102;-63
2021/08/24 04:22:12;;;;;;;4.70;3.28;;;;;;;15.46;75.80;100061.00;5118229;28;20051;-62
2021/08/24 04:24:58;;;;;;;5.20;3.53;;;;;;;15.66;74.54;100102.94;5122528;28;20038;-62
2021/08/24 04:27:45;;;;;;;7.18;3.80;;;;;;;15.65;74.79;100108.22;5114769;28;20032;-62
2021/08/24 04:30:31;;;;;;;6.75;3.55;;;;;;;15.76;75.62;100108.69;5102367;28;20217;-63
2021/08/24 04:33:21;;;;;;;5.40;3.15;;;;;;;15.79;76.30;100103.38;5115373;28;20030;-62
2021/08/24 04:36:08;;;;;;;3.80;3.25;;;;;;;15.83;75.68;100109.31;5122306;28;20019;-63
2021/08/24 04:38:54;;;;;;;7.55;3.80;;;;;;;15.93;74.83;100108.06;5121220;28;20024;-64
2021/08/24 04:41:40;;;;;;;9.98;4.30;;;;;;;15.86;74.53;100096.13;5121596;28;20023;-63
2021/08/24 04:44:25;;;;;;;4.43;3.58;;;;;;;15.95;74.31;100095.81;5122287;28;20023;-63
2021/08/24 04:47:11;;;;;;;4.55;3.42;;;;;;;15.97;73.62;100086.16;5121243;28;20066;-63
2021/08/24 04:49:57;;;;;;;4.90;3.28;;;;;;;16.07;74.13;100102.34;5120221;28;20199;-63
2021/08/24 04:52:43;;;;;;;6.25;3.83;;;;;;;16.11;73.48;100096.09;5121728;28;20020;-63
2021/08/24 04:55:29;;;;;;;8.45;4.43;;;;;;;16.22;73.23;100095.69;5104862;28;20073;-64
2021/08/24 04:58:15;;;;;;;6.28;4.00;;;;;;;16.27;73.39;100104.19;5117184;28;20034;-63
2021/08/24 05:01:01;;;;;;;9.18;4.22;;;;;;;16.33;73.33;100101.38;5120905;28;20032;-63
2021/08/24 05:03:47;;;;;;;5.47;3.72;;;;;;;16.42;72.81;100108.00;5121739;28;20032;-63
2021/08/24 05:06:33;;;;;;;5.45;3.70;;;;;;;16.47;73.07;100097.34;5120446;28;20023;-62
2021/08/24 05:09:19;;;;;;;7.63;4.60;;;;;;;16.50;72.93;100108.56;5120615;28;20220;-61
2021/08/24 05:12:05;;;;;;;11.27;4.38;;;;;;;16.55;72.46;100105.75;5120365;28;20024;-61
2021/08/24 05:14:51;;;;;;;7.78;4.20;;;;;;;16.60;72.68;100101.16;5111598;28;20034;-61
2021/08/24 05:17:38;;;;;;;9.98;4.18;;;;;;;16.68;72.23;100104.34;5118471;28;20153;-62
2021/08/24 05:20:24;;;;;;;7.28;3.72;;;;;;;16.77;71.23;100097.03;5120091;28;20026;-62
2021/08/24 05:23:10;;;;;;;8.05;4.13;;;;;;;16.94;70.92;100099.84;5120290;28;20024;-62
2021/08/24 05:25:56;;;;;;;5.85;3.83;;;;;;;16.93;70.82;100086.81;5117276;28;20358;-64
2021/08/24 05:28:42;;;;;;;6.95;4.00;;;;;;;17.02;70.64;100089.06;5111605;28;20053;-64
2021/08/24 05:31:28;;;;;;;7.95;3.70;;;;;;;17.12;70.06;100084.31;5110134;28;20289;-63
2021/08/24 05:34:14;;;;;;;7.50;3.72;;;;;;;17.22;69.83;100090.84;5101100;28;20043;-62
2021/08/24 05:37:01;;;;;;;5.30;3.50;;;;;;;17.23;69.43;100076.84;5122514;28;20027;-62
2021/08/24 05:39:46;;;;;;;4.20;2.60;;;;;;;17.31;69.49;100074.75;5120487;28;20030;-63
2021/08/24 05:42:33;;;;;;;3.80;2.97;;;;;;;17.48;68.88;100078.41;5121924;28;20094;-62
2021/08/24 05:45:18;;;;;;;4.65;2.70;;;;;;;17.56;69.00;100078.94;5106172;28;20054;-62
2021/08/24 05:48:04;;;;;;;5.95;3.05;;;;;;;17.64;68.09;100079.41;5119303;28;20095;-61
2021/08/24 05:50:50;;;;;;;8.23;2.65;;;;;;;17.69;67.87;100071.38;5098329;28;20046;-62
2021/08/24 05:53:36;;;;;;;6.10;2.63;;;;;;;17.82;67.02;100076.91;5120439;28;20027;-62
2021/08/24 05:56:24;;;;;;;7.35;3.08;;;;;;;17.83;67.02;100063.75;5104906;28;20054;-62
2021/08/24 05:59:10;;;;;;;10.65;3.30;;;;;;;17.93;66.28;100079.94;5119337;28;20027;-62
2021/08/24 06:01:57;;;;;;;3.63;2.40;;;;;;;17.84;65.03;100064.56;5121038;28;20023;-62
2021/08/24 06:04:43;;;;;;;4.13;2.40;;;;;;;18.01;65.69;100077.78;5106223;28;20027;-63
2021/08/24 06:07:29;;;;;;;3.85;2.03;;;;;;;18.08;64.73;100066.09;5113694;28;20020;-63
2021/08/24 06:10:15;;;;;;;3.65;2.60;;;;;;;18.22;64.42;100065.44;5113225;28;20020;-62
2021/08/24 06:13:01;;;;;;;6.18;1.95;;;;;;;18.22;63.64;100065.44;5120653;28;20062;-63
2021/08/24 06:15:47;;;;;;;4.60;1.90;;;;;;;18.29;63.39;100066.88;5120798;28;20089;-63
2021/08/24 06:18:35;;;;;;;3.92;1.85;;;;;;;18.40;62.76;100070.78;5120887;28;20050;-62
2021/08/24 06:21:21;;;;;;;3.05;1.80;;;;;;;18.52;61.85;100072.78;5105186;28;20106;-62
2021/08/24 06:24:09;;;;;;;3.05;1.65;;;;;;;18.28;61.00;100028.47;5120995;28;20363;-62
2021/08/24 06:26:55;;;;;;;2.35;1.80;;;;;;;18.59;60.18;100068.09;5118488;28;20038;-62
2021/08/24 06:29:40;;;;;;;3.45;1.80;;;;;;;18.80;60.74;100068.81;5105582;28;20201;-63
2021/08/24 06:32:31;;;;;;;3.22;1.83;;;;;;;18.66;59.52;100026.69;5121393;28;20328;-62
2021/08/24 06:35:21;;;;;;;3.03;1.90;;;;;;;18.94;59.79;100063.78;5104368;28;20486;-62
2021/08/24 06:38:07;;;;;;;2.88;1.70;;;;;;;19.02;58.29;100073.88;5122810;28;20031;-62
2021/08/24 06:40:53;;;;;;;4.03;1.73;;;;;;;18.97;58.55;100074.09;5123778;28;20020;-64
2021/08/24 06:43:39;;;;;;;2.08;1.55;;;;;;;18.99;58.98;100076.66;5123639;28;20023;-63
2021/08/24 06:46:25;;;;;;;3.67;1.70;;;;;;;18.92;59.05;100075.25;5120808;28;20028;-63
2021/08/24 06:49:11;;;;;;;3.50;2.03;;;;;;;18.80;59.28;100081.94;5124537;28;20046;-62
2021/08/24 06:51:59;;;;;;;2.85;1.83;;;;;;;18.74;58.88;100076.97;5124341;28;20394;-62
2021/08/24 06:54:46;;;;;;;4.22;1.90;;;;;;;18.81;60.44;100088.88;5124581;28;20288;-62
2021/08/24 06:57:32;;;;;;;4.60;1.80;;;;;;;18.77;61.39;100090.81;5124775;28;20035;-63
2021/08/24 07:00:22;;;;;;;5.10;1.90;;;;;;;18.71;60.12;100085.00;5123015;28;20039;-62
2021/08/24 07:03:09;;;;;;;6.00;2.15;;;;;;;18.77;58.83;100080.31;5123757;28;20076;-62
2021/08/24 07:05:56;;;;;;;6.85;1.70;;;;;;;18.93;58.57;100085.69;5106360;28;20083;-63
2021/08/24 07:08:43;;;;;;;10.70;2.00;;;;;;;19.11;57.17;100086.56;5088721;28;20078;-63
2021/08/24 07:11:29;;;;;;;5.30;1.58;;;;;;;19.35;57.01;100077.50;5111681;28;20019;-63
2021/08/24 07:14:15;;;;;;;4.28;1.80;;;;;;;19.39;56.33;100074.63;5123500;28;20023;-63
2021/08/24 07:17:02;;;;;;;2.58;1.77;;;;;;;19.36;53.11;100077.41;5123600;28;20069;-61
2021/08/24 07:19:48;;;;;;;5.10;1.60;;;;;;;19.55;54.38;100073.81;5124561;28;20019;-62
2021/08/24 07:22:34;;;;;;;2.65;1.38;;;;;;;19.60;54.34;100079.69;5123535;28;20111;-62
2021/08/24 07:25:22;;;;;;;4.80;1.88;;;;;;;19.74;54.11;100082.44;5123741;28;20028;-62
2021/08/24 07:28:10;;;;;;;3.90;1.85;;;;;;;19.70;53.11;100078.28;5113548;28;20197;-61
2021/08/24 07:30:56;;;;;;;3.97;1.70;;;;;;;19.65;53.43;100080.28;5123735;28;20031;-63
2021/08/24 07:33:42;;;;;;;6.72;2.00;;;;;;;19.72;53.98;100091.31;5123961;28;20248;-63
2021/08/24 07:36:28;;;;;;;7.03;2.20;;;;;;;19.62;53.30;100088.34;5123743;28;20107;-63
2021/08/24 07:39:14;;;;;;;5.13;1.75;;;;;;;19.52;51.94;100085.34;5122689;28;20339;-63
2021/08/24 07:42:00;;;;;;;3.65;1.77;;;;;;;19.70;52.50;100087.94;5108331;28;20032;-62
2021/08/24 07:44:45;;;;;;;5.30;2.42;;;;;;;19.67;53.25;100088.94;5122125;28;20046;-63
2021/08/24 07:47:31;;;;;;;2.92;2.00;;;;;;;19.73;50.38;100079.91;5123428;28;20024;-62
2021/08/24 07:50:18;;;;;;;2.70;1.70;;;;;;;19.61;50.76;100092.75;5108209;28;20035;-62
2021/08/24 07:53:04;;;;;;;3.60;1.83;;;;;;;19.61;51.47;100092.75;5119528;28;21207;-62
2021/08/24 07:55:50;;;;;;;3.08;1.55;;;;;;;19.64;51.45;100083.88;5108280;28;20247;-62
2021/08/24 07:58:36;;;;;;;4.10;2.47;;;;;;;19.68;50.71;100093.25;5122932;28;20019;-62
2021/08/24 08:01:22;;;;;;;7.53;2.13;;;;;;;19.69;51.54;100091.50;5122490;28;20077;-63
2021/08/24 08:04:08;;;;;;;4.47;2.20;;;;;;;19.79;50.74;100090.94;5122110;28;20106;-62
2021/08/24 08:06:54;;;;;;;5.18;2.38;;;;;;;19.92;49.87;100087.66;5122880;28;20220;-62
2021/08/24 08:09:40;;;;;;;5.78;2.15;;;;;;;19.91;49.32;100084.19;5120881;28;20137;-62
2021/08/24 08:12:26;;;;;;;2.20;1.85;;;;;;;19.92;51.10;100098.19;5081630;28;20059;-62
2021/08/24 08:15:14;;;;;;;3.88;2.40;;;;;;;19.90;51.12;100092.16;5116377;28;20032;-62
2021/08/24 08:18:05;;;;;;;6.00;2.25;;;;;;;19.60;52.06;100053.41;5113580;28;20193;-62
2021/08/24 08:20:52;;;;;;;6.55;2.30;;;;;;;19.80;50.54;100084.75;5121261;28;20070;-62
2021/08/24 08:23:39;;;;;;;4.10;2.20;;;;;;;19.73;49.93;100075.47;5121941;28;20040;-62
2021/08/24 08:26:25;;;;;;;5.45;2.42;;;;;;;19.72;50.89;100065.03;5122920;28;20090;-62
2021/08/24 08:29:12;;;;;;;4.32;2.65;;;;;;;19.68;51.37;100061.72;5122233;28;20080;-62
2021/08/24 08:32:04;;;;;;;4.32;2.13;;;;;;;19.47;51.77;100027.78;5107398;28;20026;-62
2021/08/24 08:34:50;;;;;;;4.82;2.20;;;;;;;19.82;50.87;100061.88;5122321;28;20312;-62
2021/08/24 08:37:37;;;;;;;5.78;2.50;;;;;;;20.03;50.71;100069.53;5107473;28;20073;-62
2021/08/24 08:40:42;;;;;;;3.70;2.28;;;;;;;20.10;49.06;100041.97;5119545;28;20024;-63
2021/08/24 08:43:45;;;;;;;3.10;2.17;;;;;;;20.44;48.88;100062.91;5121146;28;20030;-63
2021/08/24 08:46:51;;;;;;;4.22;2.05;;;;;;;20.69;48.22;100054.47;5107364;28;20034;-63
2021/08/24 08:49:57;;;;;;;4.75;2.38;;;;;;;20.81;47.98;100056.41;5121799;28;20113;-62
2021/08/24 08:52:54;;;;;;;3.45;2.33;;;;;;;20.77;46.74;100044.34;5122307;28;20103;-61
2021/08/24 08:56:12;;;;;;;4.57;2.25;;;;;;;20.69;47.89;100050.06;5121739;28;20062;-62
2021/08/24 08:59:12;;;;;;;3.30;2.08;;;;;;;20.68;46.59;100047.53;5108913;28;20039;-62
2021/08/24 09:02:08;;;;;;;6.43;2.30;;;;;;;20.56;47.80;100058.72;5105023;28;20090;-62
2021/08/24 09:04:55;;;;;;;5.63;2.78;;;;;;;20.41;47.21;100056.03;5114119;28;20042;-62
2021/08/24 09:07:44;;;;;;;6.00;3.25;;;;;;;20.38;48.55;100063.25;5120421;28;20450;-64
2021/08/24 09:10:32;;;;;;;6.00;2.67;;;;;;;20.14;45.93;100066.31;5121555;28;20050;-63
2021/08/24 09:13:24;;;;;;;5.72;2.60;;;;;;;20.06;46.71;100065.88;5120807;28;20026;-63
2021/08/24 09:16:31;;;;;;;5.47;2.65;;;;;;;19.98;48.28;100068.91;5121333;28;20024;-62
2021/08/24 09:19:23;;;;;;;7.55;2.72;;;;;;;19.87;48.91;100047.66;5121449;28;20123;-63
2021/08/24 09:22:16;;;;;;;4.32;2.30;;;;;;;19.46;49.63;100012.94;5121169;28;20084;-63
2021/08/24 09:25:07;;;;;;;4.53;2.35;;;;;;;19.47;49.86;100014.66;5120768;28;20043;-63
2021/08/24 09:28:07;;;;;;;6.65;3.13;;;;;;;19.43;51.06;100023.63;5122306;28;20258;-64
2021/08/24 09:30:54;;;;;;;7.13;2.47;;;;;;;19.73;50.57;100070.22;5121555;28;20266;-63
2021/08/24 09:33:40;;;;;;;5.32;2.63;;;;;;;19.77;51.17;100066.50;5120529;28;20026;-62
2021/08/24 09:36:26;;;;;;;4.30;2.95;;;;;;;19.75;51.90;100071.00;5106416;28;20127;-63
2021/08/24 09:39:12;;;;;;;9.65;3.17;;;;;;;19.72;52.51;100076.41;5120737;28;20034;-64
2021/08/24 09:42:08;;;;;;;6.90;2.65;;;;;;;19.67;52.02;100076.66;5121246;28;20034;-63
2021/08/24 09:44:54;;;;;;;5.18;2.38;;;;;;;19.66;53.05;100079.34;5121186;28;20384;-63
2021/08/24 09:47:40;;;;;;;7.38;2.40;;;;;;;19.69;53.18;100075.72;5119096;28;20076;-63
2021/08/24 09:50:36;;;;;;;4.72;2.40;;;;;;;19.47;51.90;100035.66;5103168;28;20082;-63
2021/08/24 09:53:35;;;;;;;7.75;2.40;;;;;;;19.77;51.50;100024.44;5113977;28;20096;-63
2021/08/24 09:56:25;;;;;;;3.70;2.35;;;;;;;19.78;50.13;100023.53;5121230;28;20388;-64
2021/08/24 09:59:11;;;;;;;5.07;2.70;;;;;;;20.17;50.92;100056.47;5121658;28;20083;-64
2021/08/24 10:01:57;;;;;;;4.35;2.63;;;;;;;20.12;51.27;100050.63;5100650;28;20333;-63
2021/08/24 10:04:56;;;;;;;4.97;2.83;;;;;;;20.17;51.16;100061.72;5110998;28;20047;-64
2021/08/24 10:07:45;;;;;;;6.85;2.67;;;;;;;20.23;51.69;100083.38;5122126;28;20031;-64
2021/08/24 10:10:37;;;;;;;4.25;2.53;;;;;;;20.10;50.84;100052.47;5125143;28;20023;-64
2021/08/24 10:13:30;;;;;;;7.68;2.85;;;;;;;19.93;51.82;100019.22;5125003;28;21048;-63
2021/08/24 10:16:37;;;;;;;7.38;2.80;;;;;;;20.17;51.28;100066.16;5125192;28;20035;-65
2021/08/24 10:19:27;;;;;;;6.28;2.50;;;;;;;19.85;52.19;100033.72;5125095;28;20023;-65
2021/08/24 10:22:22;;;;;;;10.98;3.55;;;;;;;19.57;50.72;100017.63;5125282;28;20047;-65
2021/08/24 10:25:18;;;;;;;6.00;2.83;;;;;;;20.03;52.01;100072.16;5124018;28;20247;-66
2021/08/24 10:28:12;;;;;;;4.95;2.92;;;;;;;20.00;52.02;100064.44;5124060;28;20395;-66
2021/08/24 10:31:01;;;;;;;7.50;2.72;;;;;;;19.76;52.10;100030.63;5125009;28;20296;-66
2021/08/24 10:33:59;;;;;;;8.13;2.45;;;;;;;19.97;51.89;100043.59;5124109;28;20031;-65
2021/08/24 10:36:47;;;;;;;9.48;2.70;;;;;;;19.98;53.06;100029.47;5113807;28;20019;-64
2021/08/24 10:39:33;;;;;;;4.28;2.65;;;;;;;20.32;52.47;100067.94;5123734;28;20385;-65
2021/08/24 10:42:23;;;;;;;4.70;2.67;;;;;;;20.08;50.89;100020.16;5124661;28;20024;-65
2021/08/24 10:45:21;;;;;;;6.13;2.78;;;;;;;20.39;51.02;100052.63;5124211;28;20020;-66
2021/08/24 10:48:20;;;;;;;3.67;2.83;;;;;;;20.40;52.27;100056.97;5103749;28;20293;-65
2021/08/24 10:51:11;;;;;;;4.93;2.70;;;;;;;20.50;49.85;100058.13;5116916;28;20027;-65
2021/08/24 10:54:06;;;;;;;4.85;2.78;;;;;;;20.52;49.57;100053.66;5124523;28;20231;-64
2021/08/24 10:57:15;;;;;;;6.07;3.05;;;;;;;20.50;48.84;100052.88;5123888;28;20031;-65
2021/08/24 11:00:19;;;;;;;6.60;2.60;;;;;;;20.61;47.30;100051.44;5121413;28;20027;-65
2021/08/24 11:03:36;;;;;;;4.85;3.00;;;;;;;20.63;45.78;100036.38;5122509;28;20028;-65
2021/08/24 11:06:47;;;;;;;4.40;2.78;;;;;;;20.63;47.42;100010.91;5121388;28;20220;-66
2021/08/24 11:09:48;;;;;;;8.27;3.90;;;;;;;20.89;46.50;100036.69;5122277;28;20142;-66
2021/08/24 11:12:57;;;;;;;4.75;2.70;;;;;;;20.98;44.27;100033.53;5115309;28;20363;-67
2021/08/24 11:15:51;;;;;;;4.45;2.83;;;;;;;20.91;41.66;100029.53;5123979;28;20027;-66
2021/08/24 11:18:44;;;;;;;4.03;2.88;;;;;;;20.86;41.75;99995.56;5117021;28;20224;-67
2021/08/24 11:21:41;;;;;;;4.97;2.75;;;;;;;21.02;41.48;100008.66;5123722;28;20047;-65
2021/08/24 11:24:47;;;;;;;7.68;2.92;;;;;;;20.89;43.24;100013.81;5124124;28;20035;-66
2021/08/24 11:27:56;;;;;;;3.70;2.50;;;;;;;20.91;43.53;100027.75;5120813;28;20038;-65
2021/08/24 11:30:53;;;;;;;4.88;2.95;;;;;;;20.79;45.21;100026.69;5123822;28;20055;-64
2021/08/24 11:33:42;;;;;;;7.82;3.25;;;;;;;20.83;45.08;100024.72;5124045;28;20027;-64
2021/08/24 11:37:07;;;;;;;5.60;2.83;;;;;;;20.77;44.57;100028.56;5123419;28;20040;-63
2021/08/24 11:39:56;;;;;;;6.25;3.15;;;;;;;20.60;46.54;100005.81;5108177;28;20032;-64
2021/08/24 11:42:45;;;;;;;7.88;3.53;;;;;;;20.33;46.53;99977.53;5119140;28;20336;-64
2021/08/24 11:45:44;;;;;;;7.78;3.50;;;;;;;20.71;47.92;100028.94;5124207;28;20019;-64
2021/08/24 11:48:33;;;;;;;5.18;2.65;;;;;;;20.69;46.73;100017.63;5115786;28;20232;-64
2021/08/24 11:51:25;;;;;;;5.82;2.92;;;;;;;20.76;45.98;100011.06;5102835;28;20035;-64
2021/08/24 11:54:20;;;;;;;8.32;3.28;;;;;;;20.77;45.44;100012.75;5116176;28;20042;-65
2021/08/24 11:57:14;;;;;;;5.95;3.03;;;;;;;20.88;45.47;100020.03;5113675;28;20031;-65
2021/08/24 12:00:00;;;;;;;5.65;2.83;;;;;;;20.87;45.89;100026.25;5122535;28;20251;-64
2021/08/24 12:02:52;;;;;;;7.38;2.88;;;;;;;20.82;47.37;100021.25;5094269;28;20053;-65
2021/08/24 12:05:45;;;;;;;5.03;3.10;;;;;;;20.37;46.79;99957.16;5114424;28;20212;-64
2021/08/24 12:08:40;;;;;;;4.93;3.13;;;;;;;20.51;47.20;99980.91;5111466;28;20055;-64
2021/08/24 12:11:49;;;;;;;6.43;3.00;;;;;;;20.73;45.53;100024.41;5121913;28;20042;-64
2021/08/24 12:14:55;;;;;;;4.55;2.65;;;;;;;20.30;46.43;99979.50;5123492;28;20020;-64
2021/08/24 12:17:41;;;;;;;7.30;3.67;;;;;;;20.48;46.08;100007.38;5107630;28;20027;-65
2021/08/24 12:20:52;;;;;;;7.70;3.17;;;;;;;20.55;45.75;100022.81;5119463;28;20227;-65
2021/08/24 12:23:42;;;;;;;5.78;3.10;;;;;;;20.40;47.79;100012.22;5117049;28;20043;-64
2021/08/24 12:26:32;;;;;;;4.47;3.33;;;;;;;20.51;47.90;100028.25;5106916;28;20094;-64
2021/08/24 12:29:41;;;;;;;4.53;3.08;;;;;;;20.53;47.37;100018.47;5120859;28;20023;-63
2021/08/24 12:32:27;;;;;;;6.05;2.90;;;;;;;20.54;49.97;100021.97;5120335;28;20135;-64
2021/08/24 12:35:38;;;;;;;6.70;3.17;;;;;;;20.33;48.51;99989.84;5121364;28;20031;-64
2021/08/24 12:39:20;;;;;;;6.22;3.58;;;;;;;20.43;47.49;100030.47;5108337;28;20309;-64
2021/08/24 12:42:26;;;;;;;7.95;3.25;;;;;;;20.50;46.71;100026.56;5027358;28;20629;-63
2021/08/24 12:45:21;;;;;;;6.15;3.10;;;;;;;20.60;47.19;100020.78;5122558;28;20073;-64
2021/08/24 12:48:27;;;;;;;7.78;3.53;;;;;;;20.59;47.57;100019.06;5121919;28;20503;-64
2021/08/24 12:51:29;;;;;;;4.25;2.92;;;;;;;20.60;49.19;100015.50;5121303;28;20039;-63
2021/08/24 12:54:19;;;;;;;7.50;3.75;;;;;;;20.62;49.20;100011.00;5122425;28;20097;-63
2021/08/24 12:57:05;;;;;;;5.80;3.08;;;;;;;20.69;48.94;100017.63;5121745;28;20092;-64
2021/08/24 12:59:53;;;;;;;6.20;3.17;;;;;;;20.70;49.07;100019.34;5122171;28;20083;-63
2021/08/24 13:02:39;;;;;;;4.40;2.97;;;;;;;20.61;46.00;100022.47;5119958;28;20051;-64
2021/08/24 13:05:29;;;;;;;9.52;3.33;;;;;;;20.48;45.90;100012.66;5106329;28;20197;-64
2021/08/24 13:08:27;;;;;;;5.60;3.15;;;;;;;20.49;45.78;100017.00;5120712;28;20055;-65
2021/08/24 13:11:26;;;;;;;5.15;3.00;;;;;;;20.58;46.56;100015.59;5121670;28;20038;-64
2021/08/24 13:14:53;;;;;;;5.82;3.10;;;;;;;20.55;49.00;100012.28;5121603;28;20024;-64
2021/08/24 13:17:44;;;;;;;9.68;3.05;;;;;;;20.57;46.68;100010.44;5121447;28;20030;-64